createdAt,value
2023-03-14T00:01:14.387Z,10.73
2023-03-14T00:03:43.076Z,10.61
2023-03-14T00:06:12.550Z,10.71
2023-03-14T00:08:43.327Z,10.70
2023-03-14T00:11:14.581Z,10.72
2023-03-14T00:13:43.929Z,10.77
2023-03-14T00:16:14.541Z,10.76
2023-03-14T00:18:43.222Z,10.77
2023-03-14T00:21:13.015Z,10.75
2023-03-14T00:23:44.844Z,10.82
2023-03-14T00:26:15.633Z,10.73
2023-03-14T00:28:45.250Z,10.81
2023-03-14T00:31:16.858Z,10.74
2023-03-14T00:33:46.954Z,10.76
2023-03-14T00:36:17.908Z,10.77
2023-03-14T00:38:51.469Z,10.79
2023-03-14T00:41:23.259Z,10.70
2023-03-14T00:43:52.191Z,10.69
2023-03-14T00:46:22.208Z,10.69
2023-03-14T00:48:50.937Z,10.70
2023-03-14T00:51:19.391Z,10.69
2023-03-14T00:53:49.142Z,10.72
2023-03-14T00:56:17.670Z,10.70
2023-03-14T00:58:46.584Z,10.70
2023-03-14T01:01:18.163Z,10.70
2023-03-14T01:03:47.313Z,10.69
2023-03-14T01:06:21.410Z,10.73
2023-03-14T01:08:51.754Z,10.66
2023-03-14T01:11:22.960Z,10.63
2023-03-14T01:13:53.071Z,10.59
2023-03-14T01:16:23.846Z,10.62
2023-03-14T01:18:53.040Z,10.61
2023-03-14T01:21:24.456Z,10.66
2023-03-14T01:23:55.984Z,10.65
2023-03-14T01:26:27.338Z,10.67
2023-03-14T01:28:57.820Z,10.69
2023-03-14T01:31:27.986Z,10.66
2023-03-14T01:33:56.825Z,10.68
2023-03-14T01:36:25.407Z,10.64
2023-03-14T01:38:55.148Z,10.71
2023-03-14T01:41:27.209Z,10.69
2023-03-14T01:43:57.990Z,10.71
2023-03-14T01:46:33.017Z,10.70
2023-03-14T01:49:09.651Z,10.74
2023-03-14T01:51:46.476Z,10.78
2023-03-14T01:54:23.641Z,10.75
2023-03-14T01:56:55.685Z,10.76
2023-03-14T01:59:24.457Z,10.74
2023-03-14T02:01:54.373Z,10.79
2023-03-14T02:04:23.429Z,10.74
2023-03-14T02:06:58.577Z,10.74
2023-03-14T02:09:33.012Z,10.71
2023-03-14T02:12:02.654Z,10.73
2023-03-14T02:14:51.272Z,10.75
2023-03-14T02:17:29.847Z,10.79
2023-03-14T02:20:34.801Z,10.75
2023-03-14T02:23:03.675Z,10.72
2023-03-14T02:25:43.130Z,10.76
2023-03-14T02:28:14.005Z,10.78
2023-03-14T02:30:42.747Z,10.76
2023-03-14T02:33:14.805Z,10.76
2023-03-14T02:35:49.487Z,10.81
2023-03-14T02:38:23.411Z,10.75
2023-03-14T02:40:52.794Z,10.76
2023-03-14T02:43:22.770Z,10.73
2023-03-14T02:45:58.459Z,10.76
2023-03-14T02:48:29.269Z,10.71
2023-03-14T02:51:01.971Z,10.75
2023-03-14T02:53:34.081Z,10.77
2023-03-14T02:56:10.129Z,10.82
2023-03-14T02:58:40.927Z,10.79
2023-03-14T03:01:21.013Z,10.73
2023-03-14T03:03:49.396Z,10.75
2023-03-14T03:06:18.509Z,10.78
2023-03-14T03:08:47.028Z,10.82
2023-03-14T03:11:15.394Z,10.75
2023-03-14T03:13:45.277Z,10.80
2023-03-14T03:16:16.167Z,10.75
2023-03-14T03:18:44.813Z,10.71
2023-03-14T03:21:13.174Z,10.72
2023-03-14T03:23:41.762Z,10.70
2023-03-14T03:26:12.205Z,10.72
2023-03-14T03:28:40.667Z,10.71
2023-03-14T03:31:12.159Z,10.76
2023-03-14T03:33:41.348Z,10.71
2023-03-14T03:36:11.655Z,10.72
2023-03-14T03:38:41.612Z,10.72
2023-03-14T03:41:11.324Z,10.69
2023-03-14T03:43:39.635Z,10.73
2023-03-14T03:46:12.384Z,10.74
2023-03-14T03:48:41.426Z,10.71
2023-03-14T03:51:14.584Z,10.69
2023-03-14T03:53:43.676Z,10.69
2023-03-14T03:56:15.018Z,10.66
2023-03-14T03:58:44.772Z,10.64
2023-03-14T04:01:14.545Z,10.65
2023-03-14T04:03:43.079Z,10.66
2023-03-14T04:06:14.125Z,10.71
2023-03-14T04:08:45.311Z,10.67
2023-03-14T04:11:25.809Z,10.69
2023-03-14T04:13:59.016Z,10.67
2023-03-14T04:16:28.934Z,10.62
2023-03-14T04:19:04.685Z,10.70
2023-03-14T04:21:34.212Z,10.72
2023-03-14T04:24:02.563Z,10.66
2023-03-14T04:26:34.479Z,10.71
2023-03-14T04:29:02.797Z,10.74
2023-03-14T04:31:32.906Z,10.70
2023-03-14T04:34:01.310Z,10.74
2023-03-14T04:36:44.704Z,10.75
2023-03-14T04:39:18.225Z,10.65
2023-03-14T04:41:54.401Z,10.74
2023-03-14T04:44:22.880Z,10.76
2023-03-14T04:46:55.464Z,10.67
2023-03-14T04:49:23.973Z,10.70
2023-03-14T04:51:52.839Z,10.70
2023-03-14T04:54:22.771Z,10.73
2023-03-14T04:56:54.952Z,10.74
2023-03-14T04:59:23.666Z,10.72
2023-03-14T05:01:56.258Z,10.73
2023-03-14T05:04:43.315Z,10.74
2023-03-14T05:07:24.082Z,10.75
2023-03-14T05:10:12.934Z,10.71
2023-03-14T05:12:44.755Z,10.74
2023-03-14T05:15:42.357Z,10.72
2023-03-14T05:18:30.719Z,10.70
2023-03-14T05:21:14.036Z,10.74
2023-03-14T05:24:21.181Z,10.76
2023-03-14T05:27:07.710Z,10.72
2023-03-14T05:29:54.934Z,10.69
2023-03-14T05:32:23.346Z,10.76
2023-03-14T05:35:16.876Z,10.77
2023-03-14T05:37:54.832Z,10.80
2023-03-14T05:40:26.190Z,10.75
2023-03-14T05:43:12.538Z,10.73
2023-03-14T05:46:10.195Z,10.73
2023-03-14T05:48:51.187Z,10.70
2023-03-14T05:51:35.614Z,10.73
2023-03-14T05:54:20.965Z,10.69
2023-03-14T05:57:08.878Z,10.73
2023-03-14T06:00:00.174Z,10.71
2023-03-14T06:02:55.000Z,10.78
2023-03-14T06:05:29.356Z,10.74
2023-03-14T06:08:03.471Z,10.67
2023-03-14T06:10:33.776Z,10.69
2023-03-14T06:13:02.199Z,10.70
2023-03-14T06:15:30.846Z,10.73
2023-03-14T06:18:00.012Z,10.70
2023-03-14T06:20:29.289Z,10.72
2023-03-14T06:22:58.470Z,10.73
2023-03-14T06:25:28.367Z,10.72
2023-03-14T06:27:57.093Z,10.67
2023-03-14T06:30:25.676Z,10.71
2023-03-14T06:32:56.525Z,10.68
2023-03-14T06:35:25.499Z,10.71
2023-03-14T06:37:54.192Z,10.75
2023-03-14T06:40:22.577Z,10.72
2023-03-14T06:43:21.580Z,10.74
2023-03-14T06:45:50.117Z,10.70
2023-03-14T06:48:19.938Z,10.73
2023-03-14T06:50:53.382Z,10.68
2023-03-14T06:53:23.204Z,10.71
2023-03-14T06:55:52.612Z,10.69
2023-03-14T06:58:22.910Z,10.74
2023-03-14T07:00:51.549Z,10.73
2023-03-14T07:03:25.669Z,10.69
2023-03-14T07:05:56.636Z,10.68
2023-03-14T07:08:25.017Z,10.73
2023-03-14T07:10:53.427Z,10.79
2023-03-14T07:13:23.140Z,10.74
2023-03-14T07:15:58.196Z,10.76
2023-03-14T07:18:26.741Z,10.79
2023-03-14T07:20:55.146Z,10.78
2023-03-14T07:23:23.576Z,10.81
2023-03-14T07:25:54.795Z,10.82
2023-03-14T07:28:28.210Z,10.79
2023-03-14T07:31:18.737Z,10.82
2023-03-14T07:33:48.592Z,10.83
2023-03-14T07:36:17.494Z,10.84
2023-03-14T07:38:47.241Z,11.30
2023-03-14T07:41:34.302Z,12.33
2023-03-14T07:44:30.006Z,11.62
2023-03-14T07:46:58.347Z,11.37
2023-03-14T07:49:27.005Z,11.28
2023-03-14T07:51:55.422Z,11.22
2023-03-14T07:54:24.693Z,11.18
2023-03-14T07:56:53.781Z,11.21
2023-03-14T07:59:22.834Z,11.19
2023-03-14T08:01:52.572Z,11.19
2023-03-14T08:04:20.995Z,11.25
2023-03-14T08:06:49.388Z,11.25
2023-03-14T08:09:17.774Z,11.29
2023-03-14T08:11:46.163Z,11.24
2023-03-14T08:14:14.530Z,11.27
2023-03-14T08:16:42.944Z,11.16
2023-03-14T08:19:12.681Z,11.21
2023-03-14T08:21:41.057Z,11.23
2023-03-14T08:24:09.829Z,11.27
2023-03-14T08:26:38.231Z,11.25
2023-03-14T08:29:06.672Z,11.23
2023-03-14T08:31:35.220Z,11.35
2023-03-14T08:34:04.434Z,11.39
2023-03-14T08:36:34.490Z,11.42
2023-03-14T08:39:04.798Z,11.43
2023-03-14T08:41:33.306Z,11.47
2023-03-14T08:44:01.835Z,11.55
2023-03-14T08:46:30.284Z,11.48
2023-03-14T08:48:58.721Z,11.44
2023-03-14T08:51:27.077Z,11.38
2023-03-14T08:53:56.926Z,11.41
2023-03-14T08:56:26.196Z,11.52
2023-03-14T08:58:54.700Z,11.52
2023-03-14T09:01:25.282Z,11.61
2023-03-14T09:03:53.899Z,11.58
2023-03-14T09:06:22.399Z,11.52
2023-03-14T09:08:50.745Z,11.56
2023-03-14T09:11:20.612Z,11.61
2023-03-14T09:13:49.637Z,11.75
2023-03-14T09:16:18.484Z,11.84
2023-03-14T09:18:46.989Z,11.75
2023-03-14T09:21:15.410Z,11.83
2023-03-14T09:23:46.365Z,11.83
2023-03-14T09:26:15.160Z,12.01
2023-03-14T09:28:44.903Z,12.19
2023-03-14T09:31:14.947Z,12.22
2023-03-14T09:33:43.331Z,12.27
2023-03-14T09:36:12.166Z,12.20
2023-03-14T09:38:40.594Z,12.28
2023-03-14T09:41:18.330Z,12.28
2023-03-14T09:43:52.069Z,12.26
2023-03-14T09:46:21.209Z,12.10
2023-03-14T09:48:49.761Z,12.13
2023-03-14T09:51:22.750Z,11.98
2023-03-14T09:53:52.738Z,11.82
2023-03-14T09:56:25.113Z,11.91
2023-03-14T09:58:58.200Z,11.94
2023-03-14T10:01:32.238Z,11.83
2023-03-14T10:04:07.900Z,11.77
2023-03-14T10:06:36.528Z,11.72
2023-03-14T10:09:06.665Z,11.68
2023-03-14T10:11:35.161Z,11.70
2023-03-14T10:14:11.000Z,11.76
2023-03-14T10:16:43.794Z,11.74
2023-03-14T10:19:15.136Z,11.72
2023-03-14T10:21:46.272Z,11.76
2023-03-14T10:24:23.834Z,11.77
2023-03-14T10:26:55.606Z,11.79
2023-03-14T10:29:25.406Z,11.87
2023-03-14T10:31:57.038Z,11.94
2023-03-14T10:34:28.734Z,11.85
2023-03-14T10:37:00.481Z,11.87
2023-03-14T10:39:44.854Z,11.85
2023-03-14T10:42:22.731Z,11.85
2023-03-14T10:44:59.466Z,11.82
2023-03-14T10:47:30.341Z,11.81
2023-03-14T10:50:26.065Z,11.67
2023-03-14T10:53:03.642Z,11.58
2023-03-14T10:55:43.919Z,11.60
2023-03-14T10:58:27.187Z,11.43
2023-03-14T11:01:07.028Z,11.42
2023-03-14T11:03:38.903Z,11.53
2023-03-14T11:06:13.652Z,11.36
2023-03-14T11:08:50.864Z,11.34
2023-03-14T11:11:22.931Z,11.26
2023-03-14T11:14:06.283Z,11.29
2023-03-14T11:16:46.851Z,11.23
2023-03-14T11:19:42.793Z,11.27
2023-03-14T11:22:23.217Z,11.07
2023-03-14T11:25:08.907Z,11.20
2023-03-14T11:27:45.299Z,11.25
2023-03-14T11:30:22.095Z,11.23
2023-03-14T11:33:02.592Z,11.21
2023-03-14T11:35:36.545Z,11.08
2023-03-14T11:38:22.397Z,11.08
2023-03-14T11:40:52.669Z,11.19
2023-03-14T11:43:29.734Z,11.26
2023-03-14T11:46:06.601Z,11.22
2023-03-14T11:48:45.172Z,11.37
2023-03-14T11:51:23.758Z,11.34
2023-03-14T11:54:01.144Z,11.37
2023-03-14T11:56:36.103Z,11.37
2023-03-14T11:59:09.783Z,11.45
2023-03-14T12:01:55.747Z,11.46
2023-03-14T12:05:17.054Z,11.42
2023-03-14T12:08:13.249Z,11.44
2023-03-14T12:10:46.644Z,11.25
2023-03-14T12:13:17.795Z,10.61
2023-03-14T12:15:52.842Z,9.98
2023-03-14T12:18:28.212Z,10.10
2023-03-14T12:21:01.013Z,9.83
2023-03-14T12:23:37.963Z,9.75
2023-03-14T12:26:17.591Z,9.76
2023-03-14T12:28:52.137Z,9.84
2023-03-14T12:31:45.089Z,9.71
2023-03-14T12:34:32.780Z,9.66
2023-03-14T12:37:26.619Z,9.53
2023-03-14T12:40:18.513Z,9.44
2023-03-14T12:43:01.095Z,9.67
2023-03-14T12:45:32.305Z,9.74
2023-03-14T12:48:11.413Z,9.58
2023-03-14T12:50:45.738Z,9.82
2023-03-14T12:53:54.335Z,9.95
2023-03-14T12:56:30.766Z,10.18
2023-03-14T12:59:30.930Z,10.19
2023-03-14T13:02:04.185Z,10.14
2023-03-14T13:04:40.305Z,10.17
2023-03-14T13:07:14.421Z,10.03
2023-03-14T13:10:21.173Z,10.01
2023-03-14T13:12:56.384Z,9.97
2023-03-14T13:15:30.184Z,10.14
2023-03-14T13:18:04.788Z,10.19
2023-03-14T13:20:37.575Z,10.10
2023-03-14T13:23:06.459Z,10.09
2023-03-14T13:25:38.165Z,10.30
2023-03-14T13:28:07.836Z,10.31
2023-03-14T13:30:43.447Z,10.34
2023-03-14T13:33:18.062Z,10.50
2023-03-14T13:35:49.044Z,10.53
2023-03-14T13:38:23.848Z,10.45
2023-03-14T13:41:00.166Z,10.61
2023-03-14T13:43:33.084Z,10.60
2023-03-14T13:46:07.035Z,10.53
2023-03-14T13:48:42.479Z,10.62
2023-03-14T13:51:15.640Z,10.56
2023-03-14T13:53:48.318Z,10.46
2023-03-14T13:56:19.383Z,10.27
2023-03-14T13:58:48.776Z,10.33
2023-03-14T14:01:20.766Z,10.33
2023-03-14T14:03:54.092Z,10.32
2023-03-14T14:06:32.436Z,10.20
2023-03-14T14:09:05.712Z,10.18
2023-03-14T14:12:03.525Z,10.00
2023-03-14T14:14:42.504Z,9.83
2023-03-14T14:17:15.235Z,9.79
2023-03-14T14:19:44.625Z,9.79
2023-03-14T14:22:13.642Z,9.89
2023-03-14T14:24:43.017Z,9.93
2023-03-14T14:27:18.908Z,10.00
2023-03-14T14:30:02.044Z,9.72
2023-03-14T14:32:38.528Z,9.77
2023-03-14T14:35:08.827Z,9.42
2023-03-14T14:37:44.885Z,8.87
2023-03-14T14:40:21.326Z,8.49
2023-03-14T14:42:52.006Z,8.48
2023-03-14T14:45:23.899Z,8.50
2023-03-14T14:47:54.568Z,8.36
2023-03-14T14:50:31.559Z,8.56
2023-03-14T14:53:01.265Z,8.65
2023-03-14T14:55:36.014Z,8.60
2023-03-14T14:58:24.724Z,8.64
2023-03-14T15:00:58.280Z,8.40
2023-03-14T15:03:32.114Z,8.35
2023-03-14T15:06:01.106Z,8.43
2023-03-14T15:08:29.967Z,8.43
2023-03-14T15:10:59.241Z,8.30
2023-03-14T15:13:29.086Z,8.17
2023-03-14T15:15:57.831Z,8.03
2023-03-14T15:18:30.752Z,8.05
2023-03-14T15:20:59.479Z,8.08
2023-03-14T15:23:27.948Z,8.15
2023-03-14T15:25:56.732Z,8.09
2023-03-14T15:28:29.277Z,7.94
2023-03-14T15:31:00.128Z,7.89
2023-03-14T15:33:29.939Z,7.80
2023-03-14T15:35:59.193Z,7.70
2023-03-14T15:38:27.659Z,7.88
2023-03-14T15:40:56.103Z,7.87
2023-03-14T15:43:24.605Z,7.88
2023-03-14T15:45:54.503Z,7.84
2023-03-14T15:48:23.752Z,7.78
2023-03-14T15:50:52.132Z,7.76
2023-03-14T15:53:20.791Z,7.92
2023-03-14T15:55:49.317Z,8.04
2023-03-14T15:58:21.914Z,7.94
2023-03-14T16:00:51.495Z,7.90
2023-03-14T16:03:21.552Z,7.93
2023-03-14T16:05:50.002Z,7.97
2023-03-14T16:08:18.610Z,8.00
2023-03-14T16:10:48.328Z,8.02
2023-03-14T16:13:17.454Z,8.04
2023-03-14T16:15:56.380Z,7.82
2023-03-14T16:18:26.861Z,7.74
2023-03-14T16:21:00.597Z,7.66
2023-03-14T16:23:30.417Z,7.59
2023-03-14T16:25:59.457Z,7.75
2023-03-14T16:28:28.554Z,7.62
2023-03-14T16:31:02.757Z,7.68
2023-03-14T16:33:33.205Z,7.67
2023-03-14T16:36:06.306Z,7.59
2023-03-14T16:38:35.174Z,7.64
2023-03-14T16:41:06.259Z,7.59
2023-03-14T16:43:37.188Z,7.45
2023-03-14T16:46:07.730Z,7.61
2023-03-14T16:48:38.542Z,7.61
2023-03-14T16:51:07.435Z,7.43
2023-03-14T16:53:35.769Z,7.24
2023-03-14T16:56:04.248Z,7.42
2023-03-14T16:58:32.863Z,7.25
2023-03-14T17:01:10.468Z,7.01
2023-03-14T17:03:42.962Z,6.76
2023-03-14T17:06:13.640Z,6.70
2023-03-14T17:08:42.767Z,6.73
2023-03-14T17:11:12.203Z,6.42
2023-03-14T17:13:40.955Z,6.47
2023-03-14T17:16:10.122Z,6.38
2023-03-14T17:18:40.850Z,6.47
2023-03-14T17:21:09.736Z,6.33
2023-03-14T17:23:38.534Z,6.30
2023-03-14T17:26:07.383Z,6.30
2023-03-14T17:28:36.122Z,6.44
2023-03-14T17:31:07.838Z,6.33
2023-03-14T17:33:36.913Z,6.34
2023-03-14T17:36:08.999Z,6.39
2023-03-14T17:38:38.390Z,6.15
2023-03-14T17:41:10.311Z,6.08
2023-03-14T17:43:39.542Z,6.25
2023-03-14T17:46:12.159Z,6.03
2023-03-14T17:48:40.947Z,6.15
2023-03-14T17:51:10.885Z,6.16
2023-03-14T17:53:39.731Z,6.23
2023-03-14T17:56:09.346Z,6.23
2023-03-14T17:58:38.051Z,6.24
2023-03-14T18:01:11.660Z,6.18
2023-03-14T18:03:41.728Z,6.37
2023-03-14T18:06:14.228Z,6.28
2023-03-14T18:08:44.051Z,6.18
2023-03-14T18:11:13.199Z,6.34
2023-03-14T18:13:41.967Z,6.38
2023-03-14T18:16:14.679Z,6.08
2023-03-14T18:18:45.409Z,6.08
2023-03-14T18:21:16.338Z,6.15
2023-03-14T18:23:44.918Z,6.12
2023-03-14T18:26:13.483Z,6.12
2023-03-14T18:28:42.329Z,6.14
2023-03-14T18:31:12.949Z,6.37
2023-03-14T18:33:42.546Z,6.30
2023-03-14T18:36:12.110Z,6.26
2023-03-14T18:38:43.333Z,6.34
2023-03-14T18:41:13.948Z,6.41
2023-03-14T18:43:43.062Z,6.28
2023-03-14T18:46:12.617Z,6.37
2023-03-14T18:48:42.363Z,6.43
2023-03-14T18:51:15.169Z,6.38
2023-03-14T18:53:46.564Z,6.35
2023-03-14T18:56:15.813Z,6.24
2023-03-14T18:58:44.268Z,6.23
2023-03-14T19:01:13.496Z,6.38
2023-03-14T19:03:42.606Z,6.47
2023-03-14T19:06:12.139Z,6.35
2023-03-14T19:08:42.200Z,6.41
2023-03-14T19:11:14.100Z,6.40
2023-03-14T19:13:43.540Z,6.40
2023-03-14T19:16:13.939Z,6.38
2023-03-14T19:18:42.469Z,6.47
2023-03-14T19:21:13.251Z,6.34
2023-03-14T19:23:44.214Z,6.37
2023-03-14T19:26:16.253Z,6.37
2023-03-14T19:28:44.704Z,6.37
2023-03-14T19:31:13.146Z,6.42
2023-03-14T19:33:42.500Z,6.48
2023-03-14T19:36:22.337Z,6.49
2023-03-14T19:38:51.433Z,6.45
2023-03-14T19:41:22.657Z,6.30
2023-03-14T19:43:51.735Z,6.35
2023-03-14T19:46:21.722Z,6.27
2023-03-14T19:48:54.278Z,6.26
2023-03-14T19:51:23.420Z,6.22
2023-03-14T19:53:52.387Z,6.28
2023-03-14T19:56:24.300Z,6.39
2023-03-14T19:58:53.440Z,6.32
2023-03-14T20:01:24.497Z,6.32
2023-03-14T20:03:53.350Z,6.23
2023-03-14T20:06:22.474Z,6.12
2023-03-14T20:08:50.879Z,6.13
2023-03-14T20:11:19.307Z,6.26
2023-03-14T20:13:49.074Z,6.22
2023-03-14T20:16:17.465Z,6.31
2023-03-14T20:18:46.351Z,6.25
2023-03-14T20:21:15.766Z,6.27
2023-03-14T20:23:44.427Z,6.30
2023-03-14T20:26:12.927Z,6.24
2023-03-14T20:28:42.761Z,6.16
2023-03-14T20:31:12.661Z,6.35
2023-03-14T20:33:42.554Z,6.57
2023-03-14T20:36:11.647Z,6.41
2023-03-14T20:38:40.174Z,6.41
2023-03-14T20:41:10.653Z,6.43
2023-03-14T20:43:39.066Z,6.51
2023-03-14T20:46:07.898Z,6.49
2023-03-14T20:48:39.135Z,6.50
2023-03-14T20:51:07.790Z,6.41
2023-03-14T20:53:36.208Z,6.46
2023-03-14T20:56:04.878Z,6.37
2023-03-14T20:58:33.778Z,6.32
2023-03-14T21:01:03.709Z,6.29
2023-03-14T21:03:32.078Z,6.24
2023-03-14T21:06:01.811Z,6.17
2023-03-14T21:08:30.248Z,6.21
2023-03-14T21:10:58.710Z,6.15
2023-03-14T21:13:27.135Z,6.05
2023-03-14T21:15:55.816Z,6.08
2023-03-14T21:18:24.401Z,6.12
2023-03-14T21:20:54.504Z,6.14
2023-03-14T21:23:26.734Z,5.99
2023-03-14T21:25:56.850Z,5.96
2023-03-14T21:28:25.807Z,5.95
2023-03-14T21:30:54.625Z,6.04
2023-03-14T21:33:23.585Z,6.17
2023-03-14T21:35:54.138Z,6.18
2023-03-14T21:38:23.992Z,6.05
2023-03-14T21:40:57.291Z,5.93
2023-03-14T21:43:25.890Z,5.95
2023-03-14T21:45:55.024Z,6.41
2023-03-14T21:48:24.093Z,6.70
2023-03-14T21:50:53.281Z,6.71
2023-03-14T21:53:30.319Z,6.68
2023-03-14T21:55:59.426Z,6.54
2023-03-14T21:58:27.966Z,6.79
2023-03-14T22:01:05.900Z,6.75
2023-03-14T22:03:35.876Z,6.68
2023-03-14T22:06:04.858Z,6.50
2023-03-14T22:08:34.633Z,6.51
2023-03-14T22:11:02.947Z,6.69
2023-03-14T22:13:31.349Z,6.46
2023-03-14T22:15:59.786Z,6.39
2023-03-14T22:18:28.249Z,6.22
2023-03-14T22:20:56.675Z,6.02
2023-03-14T22:23:25.037Z,5.97
2023-03-14T22:25:54.870Z,5.98
2023-03-14T22:28:23.243Z,5.93
2023-03-14T22:30:52.256Z,6.12
2023-03-14T22:33:21.906Z,6.14
2023-03-14T22:35:50.947Z,6.12
2023-03-14T22:38:19.545Z,6.07
2023-03-14T22:40:48.662Z,5.91
2023-03-14T22:43:18.601Z,5.75
2023-03-14T22:45:47.257Z,5.66
2023-03-14T22:48:16.205Z,5.84
2023-03-14T22:50:44.630Z,5.80
2023-03-14T22:53:12.977Z,5.94
2023-03-14T22:55:41.960Z,5.87
2023-03-14T22:58:10.551Z,5.80
2023-03-14T23:00:40.746Z,5.71
2023-03-14T23:03:09.263Z,5.69
2023-03-14T23:05:37.663Z,5.67
2023-03-14T23:08:06.351Z,5.65
2023-03-14T23:10:34.750Z,5.59
2023-03-14T23:13:05.625Z,5.54
2023-03-14T23:15:34.934Z,5.57
2023-03-14T23:18:04.770Z,5.68
2023-03-14T23:20:33.228Z,5.70
2023-03-14T23:23:01.610Z,5.81
2023-03-14T23:25:31.841Z,5.79
2023-03-14T23:28:02.100Z,5.56
2023-03-14T23:30:30.603Z,5.37
2023-03-14T23:32:59.180Z,5.37
2023-03-14T23:35:28.985Z,5.29
2023-03-14T23:37:57.375Z,5.32
2023-03-14T23:40:25.934Z,5.48
2023-03-14T23:42:54.289Z,5.46
2023-03-14T23:45:24.093Z,5.23
2023-03-14T23:47:52.465Z,5.28
2023-03-14T23:50:20.841Z,5.38
2023-03-14T23:52:50.557Z,5.25
2023-03-14T23:55:19.191Z,5.10
2023-03-14T23:57:47.822Z,5.24
